sensor_id;sensor_type;location;lat;lon;timestamp;P1;durP1;ratioP1;P2;durP2;ratioP2
38182;SDS011;23991;52.430;10.586;2023-06-04T00:01:57;3.28;;;1.90;;
38182;SDS011;23991;52.430;10.586;2023-06-04T00:04:22;3.30;;;1.98;;
38182;SDS011;23991;52.430;10.586;2023-06-04T00:06:49;3.10;;;1.95;;
38182;SDS011;23991;52.430;10.586;2023-06-04T00:09:15;4.20;;;2.25;;
38182;SDS011;23991;52.430;10.586;2023-06-04T00:11:40;2.78;;;1.92;;
38182;SDS011;23991;52.430;10.586;2023-06-04T00:14:06;3.30;;;1.80;;
38182;SDS011;23991;52.430;10.586;2023-06-04T00:16:32;3.85;;;1.90;;
38182;SDS011;23991;52.430;10.586;2023-06-04T00:19:00;6.32;;;2.20;;
38182;SDS011;23991;52.430;10.586;2023-06-04T00:21:26;3.78;;;2.33;;
38182;SDS011;23991;52.430;10.586;2023-06-04T00:23:51;3.13;;;1.85;;
38182;SDS011;23991;52.430;10.586;2023-06-04T00:26:17;4.47;;;1.92;;
38182;SDS011;23991;52.430;10.586;2023-06-04T00:28:43;3.30;;;2.33;;
38182;SDS011;23991;52.430;10.586;2023-06-04T00:31:09;3.47;;;2.30;;
38182;SDS011;23991;52.430;10.586;2023-06-04T00:33:35;4.95;;;2.20;;
38182;SDS011;23991;52.430;10.586;2023-06-04T00:36:01;4.50;;;2.33;;
38182;SDS011;23991;52.430;10.586;2023-06-04T00:38:27;4.38;;;2.35;;
38182;SDS011;23991;52.430;10.586;2023-06-04T00:40:52;3.65;;;2.15;;
38182;SDS011;23991;52.430;10.586;2023-06-04T00:43:18;5.93;;;2.33;;
38182;SDS011;23991;52.430;10.586;2023-06-04T00:45:44;5.95;;;2.35;;
38182;SDS011;23991;52.430;10.586;2023-06-04T00:48:09;3.95;;;2.00;;
38182;SDS011;23991;52.430;10.586;2023-06-04T00:50:35;4.70;;;2.22;;
38182;SDS011;23991;52.430;10.586;2023-06-04T00:53:03;4.68;;;2.28;;
38182;SDS011;23991;52.430;10.586;2023-06-04T00:55:30;4.95;;;2.30;;
38182;SDS011;23991;52.430;10.586;2023-06-04T00:57:56;4.30;;;2.05;;
38182;SDS011;23991;52.430;10.586;2023-06-04T01:00:22;5.05;;;2.90;;
38182;SDS011;23991;52.430;10.586;2023-06-04T01:02:48;3.50;;;2.08;;
38182;SDS011;23991;52.430;10.586;2023-06-04T01:07:54;3.40;;;1.90;;
38182;SDS011;23991;52.430;10.586;2023-06-04T01:10:20;3.17;;;2.00;;
38182;SDS011;23991;52.430;10.586;2023-06-04T01:12:47;2.35;;;1.80;;
38182;SDS011;23991;52.430;10.586;2023-06-04T01:15:12;3.63;;;2.10;;
38182;SDS011;23991;52.430;10.586;2023-06-04T01:17:42;2.92;;;1.60;;
38182;SDS011;23991;52.430;10.586;2023-06-04T01:25:25;3.63;;;2.20;;
38182;SDS011;23991;52.430;10.586;2023-06-04T01:27:56;3.75;;;2.00;;
38182;SDS011;23991;52.430;10.586;2023-06-04T01:30:23;3.83;;;2.03;;
38182;SDS011;23991;52.430;10.586;2023-06-04T01:32:52;4.95;;;2.17;;
38182;SDS011;23991;52.430;10.586;2023-06-04T01:35:18;3.80;;;2.25;;
38182;SDS011;23991;52.430;10.586;2023-06-04T01:37:45;3.13;;;1.98;;
38182;SDS011;23991;52.430;10.586;2023-06-04T01:40:11;6.82;;;2.33;;
38182;SDS011;23991;52.430;10.586;2023-06-04T01:42:37;5.18;;;2.38;;
38182;SDS011;23991;52.430;10.586;2023-06-04T01:45:02;2.95;;;1.80;;
38182;SDS011;23991;52.430;10.586;2023-06-04T01:47:28;4.20;;;2.30;;
38182;SDS011;23991;52.430;10.586;2023-06-04T01:49:54;3.90;;;2.50;;
38182;SDS011;23991;52.430;10.586;2023-06-04T01:52:20;3.60;;;2.30;;
38182;SDS011;23991;52.430;10.586;2023-06-04T01:54:46;3.67;;;2.05;;
38182;SDS011;23991;52.430;10.586;2023-06-04T01:57:13;6.13;;;2.95;;
38182;SDS011;23991;52.430;10.586;2023-06-04T01:59:39;5.28;;;2.45;;
38182;SDS011;23991;52.430;10.586;2023-06-04T02:02:06;8.30;;;2.60;;
38182;SDS011;23991;52.430;10.586;2023-06-04T02:04:31;3.55;;;1.90;;
38182;SDS011;23991;52.430;10.586;2023-06-04T02:06:57;6.20;;;2.50;;
38182;SDS011;23991;52.430;10.586;2023-06-04T02:09:24;3.63;;;1.92;;
38182;SDS011;23991;52.430;10.586;2023-06-04T02:11:51;5.90;;;2.35;;
38182;SDS011;23991;52.430;10.586;2023-06-04T02:14:16;9.77;;;2.97;;
38182;SDS011;23991;52.430;10.586;2023-06-04T02:16:42;6.22;;;2.60;;
38182;SDS011;23991;52.430;10.586;2023-06-04T02:19:07;6.22;;;2.25;;
38182;SDS011;23991;52.430;10.586;2023-06-04T02:21:33;4.10;;;2.38;;
38182;SDS011;23991;52.430;10.586;2023-06-04T02:23:58;5.40;;;2.53;;
38182;SDS011;23991;52.430;10.586;2023-06-04T02:26:24;5.78;;;2.40;;
38182;SDS011;23991;52.430;10.586;2023-06-04T02:28:50;3.47;;;2.33;;
38182;SDS011;23991;52.430;10.586;2023-06-04T02:31:15;5.25;;;2.78;;
38182;SDS011;23991;52.430;10.586;2023-06-04T02:33:41;5.57;;;2.75;;
38182;SDS011;23991;52.430;10.586;2023-06-04T02:36:06;4.07;;;2.10;;
38182;SDS011;23991;52.430;10.586;2023-06-04T02:38:33;4.38;;;2.10;;
38182;SDS011;23991;52.430;10.586;2023-06-04T02:40:59;4.85;;;2.40;;
38182;SDS011;23991;52.430;10.586;2023-06-04T02:43:25;4.50;;;2.35;;
38182;SDS011;23991;52.430;10.586;2023-06-04T02:45:50;4.28;;;2.15;;
38182;SDS011;23991;52.430;10.586;2023-06-04T02:48:16;5.28;;;2.42;;
38182;SDS011;23991;52.430;10.586;2023-06-04T02:50:41;3.78;;;2.13;;
38182;SDS011;23991;52.430;10.586;2023-06-04T02:53:10;5.55;;;4.03;;
38182;SDS011;23991;52.430;10.586;2023-06-04T02:55:35;4.60;;;2.28;;
38182;SDS011;23991;52.430;10.586;2023-06-04T02:58:01;4.70;;;2.60;;
38182;SDS011;23991;52.430;10.586;2023-06-04T03:00:28;3.63;;;2.42;;
38182;SDS011;23991;52.430;10.586;2023-06-04T03:02:54;4.88;;;2.20;;
38182;SDS011;23991;52.430;10.586;2023-06-04T03:05:26;5.72;;;2.40;;
38182;SDS011;23991;52.430;10.586;2023-06-04T03:07:52;4.72;;;2.50;;
38182;SDS011;23991;52.430;10.586;2023-06-04T03:10:18;3.08;;;2.05;;
38182;SDS011;23991;52.430;10.586;2023-06-04T03:12:44;3.92;;;2.38;;
38182;SDS011;23991;52.430;10.586;2023-06-04T03:15:10;5.60;;;2.40;;
38182;SDS011;23991;52.430;10.586;2023-06-04T03:17:36;5.38;;;2.28;;
38182;SDS011;23991;52.430;10.586;2023-06-04T03:20:02;4.35;;;2.25;;
38182;SDS011;23991;52.430;10.586;2023-06-04T03:22:29;3.38;;;2.10;;
38182;SDS011;23991;52.430;10.586;2023-06-04T03:24:55;5.00;;;2.38;;
38182;SDS011;23991;52.430;10.586;2023-06-04T03:27:21;4.70;;;2.38;;
38182;SDS011;23991;52.430;10.586;2023-06-04T03:29:46;4.75;;;2.30;;
38182;SDS011;23991;52.430;10.586;2023-06-04T03:32:13;4.00;;;2.30;;
38182;SDS011;23991;52.430;10.586;2023-06-04T03:34:38;3.42;;;2.33;;
38182;SDS011;23991;52.430;10.586;2023-06-04T03:37:05;5.50;;;2.55;;
38182;SDS011;23991;52.430;10.586;2023-06-04T03:39:31;7.07;;;2.50;;
38182;SDS011;23991;52.430;10.586;2023-06-04T03:41:56;5.32;;;2.50;;
38182;SDS011;23991;52.430;10.586;2023-06-04T03:44:22;4.88;;;2.58;;
38182;SDS011;23991;52.430;10.586;2023-06-04T03:46:47;5.07;;;2.30;;
38182;SDS011;23991;52.430;10.586;2023-06-04T03:49:13;7.68;;;2.58;;
38182;SDS011;23991;52.430;10.586;2023-06-04T03:51:39;5.30;;;2.40;;
38182;SDS011;23991;52.430;10.586;2023-06-04T03:54:06;6.32;;;2.38;;
38182;SDS011;23991;52.430;10.586;2023-06-04T03:56:32;4.43;;;2.20;;
38182;SDS011;23991;52.430;10.586;2023-06-04T03:58:58;5.28;;;2.53;;
38182;SDS011;23991;52.430;10.586;2023-06-04T04:01:23;4.25;;;2.20;;
38182;SDS011;23991;52.430;10.586;2023-06-04T04:03:49;7.22;;;2.42;;
38182;SDS011;23991;52.430;10.586;2023-06-04T04:06:16;7.35;;;2.50;;
38182;SDS011;23991;52.430;10.586;2023-06-04T04:08:42;4.28;;;2.17;;
38182;SDS011;23991;52.430;10.586;2023-06-04T04:11:09;5.43;;;2.35;;
38182;SDS011;23991;52.430;10.586;2023-06-04T04:13:38;4.15;;;2.30;;
38182;SDS011;23991;52.430;10.586;2023-06-04T04:16:04;4.18;;;2.22;;
38182;SDS011;23991;52.430;10.586;2023-06-04T04:18:33;3.47;;;2.03;;
38182;SDS011;23991;52.430;10.586;2023-06-04T04:23:25;4.47;;;2.17;;
38182;SDS011;23991;52.430;10.586;2023-06-04T04:25:52;4.50;;;2.00;;
38182;SDS011;23991;52.430;10.586;2023-06-04T04:28:18;3.53;;;2.22;;
38182;SDS011;23991;52.430;10.586;2023-06-04T04:30:45;3.65;;;1.98;;
38182;SDS011;23991;52.430;10.586;2023-06-04T04:33:11;3.13;;;1.92;;
38182;SDS011;23991;52.430;10.586;2023-06-04T04:35:40;2.65;;;1.75;;
38182;SDS011;23991;52.430;10.586;2023-06-04T04:38:07;6.85;;;2.70;;
38182;SDS011;23991;52.430;10.586;2023-06-04T04:40:33;5.68;;;2.15;;
38182;SDS011;23991;52.430;10.586;2023-06-04T04:42:58;4.32;;;2.58;;
38182;SDS011;23991;52.430;10.586;2023-06-04T04:45:24;6.43;;;2.30;;
38182;SDS011;23991;52.430;10.586;2023-06-04T04:47:50;5.45;;;2.40;;
38182;SDS011;23991;52.430;10.586;2023-06-04T04:50:18;5.68;;;2.03;;
38182;SDS011;23991;52.430;10.586;2023-06-04T04:52:44;6.40;;;2.47;;
38182;SDS011;23991;52.430;10.586;2023-06-04T04:55:09;5.82;;;2.45;;
38182;SDS011;23991;52.430;10.586;2023-06-04T04:57:36;4.43;;;2.55;;
38182;SDS011;23991;52.430;10.586;2023-06-04T05:00:03;4.93;;;2.92;;
38182;SDS011;23991;52.430;10.586;2023-06-04T05:02:31;4.85;;;2.53;;
38182;SDS011;23991;52.430;10.586;2023-06-04T05:04:56;6.18;;;2.22;;
38182;SDS011;23991;52.430;10.586;2023-06-04T05:07:22;6.05;;;2.35;;
38182;SDS011;23991;52.430;10.586;2023-06-04T05:09:48;11.02;;;2.47;;
38182;SDS011;23991;52.430;10.586;2023-06-04T05:12:14;4.43;;;2.28;;
38182;SDS011;23991;52.430;10.586;2023-06-04T05:14:39;4.18;;;2.20;;
38182;SDS011;23991;52.430;10.586;2023-06-04T05:17:06;3.53;;;2.17;;
38182;SDS011;23991;52.430;10.586;2023-06-04T05:19:34;5.57;;;2.25;;
38182;SDS011;23991;52.430;10.586;2023-06-04T05:21:59;6.50;;;1.95;;
38182;SDS011;23991;52.430;10.586;2023-06-04T05:24:28;2.35;;;1.55;;
38182;SDS011;23991;52.430;10.586;2023-06-04T05:26:53;2.90;;;1.90;;
38182;SDS011;23991;52.430;10.586;2023-06-04T05:29:21;4.18;;;1.88;;
38182;SDS011;23991;52.430;10.586;2023-06-04T05:31:47;3.13;;;1.85;;
38182;SDS011;23991;52.430;10.586;2023-06-04T05:34:12;5.43;;;1.90;;
38182;SDS011;23991;52.430;10.586;2023-06-04T05:36:41;3.28;;;2.00;;
38182;SDS011;23991;52.430;10.586;2023-06-04T05:39:07;2.22;;;1.63;;
38182;SDS011;23991;52.430;10.586;2023-06-04T05:41:34;4.30;;;2.00;;
38182;SDS011;23991;52.430;10.586;2023-06-04T05:44:00;2.90;;;1.90;;
38182;SDS011;23991;52.430;10.586;2023-06-04T05:46:26;3.05;;;1.88;;
38182;SDS011;23991;52.430;10.586;2023-06-04T05:48:52;3.88;;;2.10;;
38182;SDS011;23991;52.430;10.586;2023-06-04T05:51:18;2.55;;;1.73;;
38182;SDS011;23991;52.430;10.586;2023-06-04T05:53:45;2.65;;;1.90;;
38182;SDS011;23991;52.430;10.586;2023-06-04T05:56:10;3.33;;;2.15;;
38182;SDS011;23991;52.430;10.586;2023-06-04T05:58:36;6.80;;;2.22;;
38182;SDS011;23991;52.430;10.586;2023-06-04T06:01:02;5.85;;;2.20;;
38182;SDS011;23991;52.430;10.586;2023-06-04T06:03:28;3.45;;;2.10;;
38182;SDS011;23991;52.430;10.586;2023-06-04T06:05:53;3.08;;;1.98;;
38182;SDS011;23991;52.430;10.586;2023-06-04T06:08:19;3.17;;;1.73;;
38182;SDS011;23991;52.430;10.586;2023-06-04T06:10:46;3.50;;;2.08;;
38182;SDS011;23991;52.430;10.586;2023-06-04T06:13:12;4.15;;;1.92;;
38182;SDS011;23991;52.430;10.586;2023-06-04T06:15:37;5.25;;;2.00;;
38182;SDS011;23991;52.430;10.586;2023-06-04T06:18:03;3.47;;;1.70;;
38182;SDS011;23991;52.430;10.586;2023-06-04T06:20:29;2.97;;;1.70;;
38182;SDS011;23991;52.430;10.586;2023-06-04T06:22:55;6.43;;;2.60;;
38182;SDS011;23991;52.430;10.586;2023-06-04T06:25:20;4.65;;;2.03;;
38182;SDS011;23991;52.430;10.586;2023-06-04T06:27:46;3.33;;;2.08;;
38182;SDS011;23991;52.430;10.586;2023-06-04T06:30:13;3.15;;;1.83;;
38182;SDS011;23991;52.430;10.586;2023-06-04T06:32:39;3.40;;;2.15;;
38182;SDS011;23991;52.430;10.586;2023-06-04T06:35:05;3.25;;;1.90;;
38182;SDS011;23991;52.430;10.586;2023-06-04T06:37:32;4.05;;;1.80;;
38182;SDS011;23991;52.430;10.586;2023-06-04T06:39:58;4.28;;;1.77;;
38182;SDS011;23991;52.430;10.586;2023-06-04T06:42:23;3.03;;;1.60;;
38182;SDS011;23991;52.430;10.586;2023-06-04T06:44:49;3.22;;;1.73;;
38182;SDS011;23991;52.430;10.586;2023-06-04T06:47:15;5.63;;;2.00;;
38182;SDS011;23991;52.430;10.586;2023-06-04T06:49:41;3.45;;;1.95;;
38182;SDS011;23991;52.430;10.586;2023-06-04T06:52:07;4.05;;;1.92;;
38182;SDS011;23991;52.430;10.586;2023-06-04T06:54:32;2.67;;;1.90;;
38182;SDS011;23991;52.430;10.586;2023-06-04T06:56:58;4.45;;;1.90;;
38182;SDS011;23991;52.430;10.586;2023-06-04T06:59:24;2.50;;;1.75;;
38182;SDS011;23991;52.430;10.586;2023-06-04T07:01:50;4.05;;;1.60;;
38182;SDS011;23991;52.430;10.586;2023-06-04T07:04:15;4.18;;;1.77;;
38182;SDS011;23991;52.430;10.586;2023-06-04T07:06:41;5.55;;;1.90;;
38182;SDS011;23991;52.430;10.586;2023-06-04T07:09:07;3.55;;;1.70;;
38182;SDS011;23991;52.430;10.586;2023-06-04T07:11:33;5.80;;;2.03;;
38182;SDS011;23991;52.430;10.586;2023-06-04T07:13:59;3.63;;;1.70;;
38182;SDS011;23991;52.430;10.586;2023-06-04T07:16:26;18.73;;;2.20;;
38182;SDS011;23991;52.430;10.586;2023-06-04T07:18:52;5.53;;;1.75;;
38182;SDS011;23991;52.430;10.586;2023-06-04T07:21:17;3.25;;;1.60;;
38182;SDS011;23991;52.430;10.586;2023-06-04T07:23:45;5.90;;;1.95;;
38182;SDS011;23991;52.430;10.586;2023-06-04T07:26:14;4.05;;;1.70;;
38182;SDS011;23991;52.430;10.586;2023-06-04T07:28:40;2.63;;;1.58;;
38182;SDS011;23991;52.430;10.586;2023-06-04T07:31:06;4.80;;;1.80;;
38182;SDS011;23991;52.430;10.586;2023-06-04T07:33:31;2.88;;;1.40;;
38182;SDS011;23991;52.430;10.586;2023-06-04T07:35:57;2.20;;;1.60;;
38182;SDS011;23991;52.430;10.586;2023-06-04T07:38:22;2.45;;;1.48;;
38182;SDS011;23991;52.430;10.586;2023-06-04T07:40:48;3.50;;;1.50;;
38182;SDS011;23991;52.430;10.586;2023-06-04T07:43:15;3.63;;;1.70;;
38182;SDS011;23991;52.430;10.586;2023-06-04T07:45:40;2.72;;;1.92;;
38182;SDS011;23991;52.430;10.586;2023-06-04T07:48:06;2.60;;;1.80;;
38182;SDS011;23991;52.430;10.586;2023-06-04T07:50:31;3.28;;;1.55;;
38182;SDS011;23991;52.430;10.586;2023-06-04T07:52:57;4.28;;;1.50;;
38182;SDS011;23991;52.430;10.586;2023-06-04T07:55:22;7.25;;;1.80;;
38182;SDS011;23991;52.430;10.586;2023-06-04T07:57:48;2.75;;;1.67;;
38182;SDS011;23991;52.430;10.586;2023-06-04T08:00:13;2.65;;;1.70;;
38182;SDS011;23991;52.430;10.586;2023-06-04T08:02:39;2.30;;;1.27;;
38182;SDS011;23991;52.430;10.586;2023-06-04T08:05:05;5.47;;;1.48;;
38182;SDS011;23991;52.430;10.586;2023-06-04T08:07:31;4.68;;;1.60;;
38182;SDS011;23991;52.430;10.586;2023-06-04T08:09:57;1.90;;;1.30;;
38182;SDS011;23991;52.430;10.586;2023-06-04T08:12:22;2.28;;;1.40;;
38182;SDS011;23991;52.430;10.586;2023-06-04T08:14:48;2.15;;;1.40;;
38182;SDS011;23991;52.430;10.586;2023-06-04T08:17:15;3.53;;;1.52;;
38182;SDS011;23991;52.430;10.586;2023-06-04T08:19:41;2.58;;;1.38;;
38182;SDS011;23991;52.430;10.586;2023-06-04T08:22:06;3.08;;;1.55;;
38182;SDS011;23991;52.430;10.586;2023-06-04T08:24:34;4.20;;;1.60;;
38182;SDS011;23991;52.430;10.586;2023-06-04T08:27:00;3.95;;;1.65;;
38182;SDS011;23991;52.430;10.586;2023-06-04T08:29:25;2.38;;;1.38;;
38182;SDS011;23991;52.430;10.586;2023-06-04T08:31:51;3.13;;;1.50;;
38182;SDS011;23991;52.430;10.586;2023-06-04T08:34:16;2.70;;;1.60;;
38182;SDS011;23991;52.430;10.586;2023-06-04T08:36:42;4.28;;;1.67;;
38182;SDS011;23991;52.430;10.586;2023-06-04T08:39:08;2.08;;;1.27;;
38182;SDS011;23991;52.430;10.586;2023-06-04T08:41:38;2.95;;;1.40;;
38182;SDS011;23991;52.430;10.586;2023-06-04T08:44:06;4.75;;;1.73;;
38182;SDS011;23991;52.430;10.586;2023-06-04T08:46:34;2.42;;;1.30;;
38182;SDS011;23991;52.430;10.586;2023-06-04T08:49:06;4.28;;;1.70;;
38182;SDS011;23991;52.430;10.586;2023-06-04T08:51:33;6.22;;;1.33;;
38182;SDS011;23991;52.430;10.586;2023-06-04T08:54:03;2.20;;;1.40;;
38182;SDS011;23991;52.430;10.586;2023-06-04T08:56:29;2.85;;;1.40;;
38182;SDS011;23991;52.430;10.586;2023-06-04T08:58:59;2.65;;;1.48;;
38182;SDS011;23991;52.430;10.586;2023-06-04T09:01:26;1.95;;;1.35;;
38182;SDS011;23991;52.430;10.586;2023-06-04T09:03:52;2.83;;;1.40;;
38182;SDS011;23991;52.430;10.586;2023-06-04T09:06:18;4.20;;;1.52;;
38182;SDS011;23991;52.430;10.586;2023-06-04T09:08:44;2.50;;;1.50;;
38182;SDS011;23991;52.430;10.586;2023-06-04T09:11:11;2.28;;;1.17;;
38182;SDS011;23991;52.430;10.586;2023-06-04T09:13:39;2.73;;;1.33;;
38182;SDS011;23991;52.430;10.586;2023-06-04T09:16:05;2.10;;;1.23;;
38182;SDS011;23991;52.430;10.586;2023-06-04T09:18:31;2.72;;;1.58;;
38182;SDS011;23991;52.430;10.586;2023-06-04T09:21:15;2.85;;;1.50;;
38182;SDS011;23991;52.430;10.586;2023-06-04T09:23:44;4.43;;;1.27;;
38182;SDS011;23991;52.430;10.586;2023-06-04T09:26:11;3.83;;;1.58;;
38182;SDS011;23991;52.430;10.586;2023-06-04T09:28:39;2.28;;;1.20;;
38182;SDS011;23991;52.430;10.586;2023-06-04T09:31:17;4.20;;;1.60;;
38182;SDS011;23991;52.430;10.586;2023-06-04T09:33:49;3.95;;;1.30;;
38182;SDS011;23991;52.430;10.586;2023-06-04T09:36:15;2.38;;;1.48;;
38182;SDS011;23991;52.430;10.586;2023-06-04T09:38:41;3.78;;;1.50;;
38182;SDS011;23991;52.430;10.586;2023-06-04T09:41:14;3.17;;;1.60;;
38182;SDS011;23991;52.430;10.586;2023-06-04T09:43:46;4.38;;;1.63;;
38182;SDS011;23991;52.430;10.586;2023-06-04T09:46:15;4.10;;;1.98;;
38182;SDS011;23991;52.430;10.586;2023-06-04T09:48:42;1.98;;;1.35;;
38182;SDS011;23991;52.430;10.586;2023-06-04T09:51:10;2.42;;;1.40;;
38182;SDS011;23991;52.430;10.586;2023-06-04T09:53:52;2.30;;;1.50;;
38182;SDS011;23991;52.430;10.586;2023-06-04T09:56:20;3.95;;;1.60;;
38182;SDS011;23991;52.430;10.586;2023-06-04T09:58:46;2.08;;;1.42;;
38182;SDS011;23991;52.430;10.586;2023-06-04T10:01:14;2.70;;;1.45;;
38182;SDS011;23991;52.430;10.586;2023-06-04T10:03:40;3.42;;;1.60;;
38182;SDS011;23991;52.430;10.586;2023-06-04T10:06:11;2.80;;;1.45;;
38182;SDS011;23991;52.430;10.586;2023-06-04T10:08:41;2.25;;;1.27;;
38182;SDS011;23991;52.430;10.586;2023-06-04T10:11:07;2.47;;;1.40;;
38182;SDS011;23991;52.430;10.586;2023-06-04T10:13:42;2.75;;;1.52;;
38182;SDS011;23991;52.430;10.586;2023-06-04T10:16:15;2.00;;;1.33;;
38182;SDS011;23991;52.430;10.586;2023-06-04T10:18:42;2.42;;;1.20;;
38182;SDS011;23991;52.430;10.586;2023-06-04T10:21:09;3.60;;;1.50;;
38182;SDS011;23991;52.430;10.586;2023-06-04T10:23:38;2.13;;;1.42;;
38182;SDS011;23991;52.430;10.586;2023-06-04T10:26:04;3.35;;;1.63;;
38182;SDS011;23991;52.430;10.586;2023-06-04T10:28:29;1.45;;;1.10;;
38182;SDS011;23991;52.430;10.586;2023-06-04T10:30:56;3.45;;;1.33;;
38182;SDS011;23991;52.430;10.586;2023-06-04T10:33:21;2.00;;;1.20;;
38182;SDS011;23991;52.430;10.586;2023-06-04T10:35:49;4.18;;;1.60;;
38182;SDS011;23991;52.430;10.586;2023-06-04T10:38:16;2.80;;;1.45;;
38182;SDS011;23991;52.430;10.586;2023-06-04T10:40:43;2.83;;;1.10;;
38182;SDS011;23991;52.430;10.586;2023-06-04T10:43:12;2.17;;;1.23;;
38182;SDS011;23991;52.430;10.586;2023-06-04T10:45:41;2.42;;;1.35;;
38182;SDS011;23991;52.430;10.586;2023-06-04T10:48:07;2.50;;;1.50;;
38182;SDS011;23991;52.430;10.586;2023-06-04T10:50:35;2.13;;;1.20;;
38182;SDS011;23991;52.430;10.586;2023-06-04T10:53:12;2.90;;;1.50;;
38182;SDS011;23991;52.430;10.586;2023-06-04T10:55:43;3.83;;;1.40;;
38182;SDS011;23991;52.430;10.586;2023-06-04T10:58:10;3.50;;;1.40;;
38182;SDS011;23991;52.430;10.586;2023-06-04T11:00:39;2.85;;;1.40;;
38182;SDS011;23991;52.430;10.586;2023-06-04T11:03:06;2.83;;;1.40;;
38182;SDS011;23991;52.430;10.586;2023-06-04T11:05:38;3.10;;;1.67;;
38182;SDS011;23991;52.430;10.586;2023-06-04T11:08:07;3.95;;;1.50;;
38182;SDS011;23991;52.430;10.586;2023-06-04T11:10:36;1.55;;;1.08;;
38182;SDS011;23991;52.430;10.586;2023-06-04T11:13:03;2.10;;;1.30;;
38182;SDS011;23991;52.430;10.586;2023-06-04T11:15:39;2.58;;;1.30;;
38182;SDS011;23991;52.430;10.586;2023-06-04T11:18:06;2.20;;;1.30;;
38182;SDS011;23991;52.430;10.586;2023-06-04T11:20:32;2.22;;;1.30;;
38182;SDS011;23991;52.430;10.586;2023-06-04T11:22:58;1.88;;;1.30;;
38182;SDS011;23991;52.430;10.586;2023-06-04T11:25:25;3.28;;;1.48;;
38182;SDS011;23991;52.430;10.586;2023-06-04T11:27:52;2.42;;;1.58;;
38182;SDS011;23991;52.430;10.586;2023-06-04T11:30:19;2.53;;;1.40;;
38182;SDS011;23991;52.430;10.586;2023-06-04T11:32:45;2.45;;;1.42;;
38182;SDS011;23991;52.430;10.586;2023-06-04T11:35:14;2.00;;;1.30;;
38182;SDS011;23991;52.430;10.586;2023-06-04T11:37:39;1.70;;;1.40;;
38182;SDS011;23991;52.430;10.586;2023-06-04T11:40:15;3.05;;;1.83;;
38182;SDS011;23991;52.430;10.586;2023-06-04T11:42:42;2.53;;;1.42;;
38182;SDS011;23991;52.430;10.586;2023-06-04T11:45:09;8.30;;;1.52;;
38182;SDS011;23991;52.430;10.586;2023-06-04T11:47:35;4.85;;;1.67;;
38182;SDS011;23991;52.430;10.586;2023-06-04T11:50:01;2.25;;;1.20;;
38182;SDS011;23991;52.430;10.586;2023-06-04T11:52:27;2.95;;;1.50;;
38182;SDS011;23991;52.430;10.586;2023-06-04T11:54:53;3.38;;;1.40;;
38182;SDS011;23991;52.430;10.586;2023-06-04T11:57:19;2.85;;;1.55;;
38182;SDS011;23991;52.430;10.586;2023-06-04T11:59:44;2.97;;;1.45;;
38182;SDS011;23991;52.430;10.586;2023-06-04T12:02:10;2.30;;;1.40;;
38182;SDS011;23991;52.430;10.586;2023-06-04T12:04:36;4.63;;;1.52;;
38182;SDS011;23991;52.430;10.586;2023-06-04T12:07:02;2.78;;;1.40;;
38182;SDS011;23991;52.430;10.586;2023-06-04T12:09:30;2.08;;;1.20;;
38182;SDS011;23991;52.430;10.586;2023-06-04T12:12:08;2.13;;;1.58;;
38182;SDS011;23991;52.430;10.586;2023-06-04T12:14:34;2.17;;;1.50;;
38182;SDS011;23991;52.430;10.586;2023-06-04T12:17:01;2.38;;;1.42;;
38182;SDS011;23991;52.430;10.586;2023-06-04T12:19:30;3.10;;;1.38;;
38182;SDS011;23991;52.430;10.586;2023-06-04T12:22:03;2.08;;;1.45;;
38182;SDS011;23991;52.430;10.586;2023-06-04T12:24:33;1.98;;;1.40;;
38182;SDS011;23991;52.430;10.586;2023-06-04T12:27:10;2.63;;;1.20;;
38182;SDS011;23991;52.430;10.586;2023-06-04T12:29:36;2.20;;;1.20;;
38182;SDS011;23991;52.430;10.586;2023-06-04T12:32:03;2.58;;;1.42;;
38182;SDS011;23991;52.430;10.586;2023-06-04T12:34:31;5.10;;;1.50;;
38182;SDS011;23991;52.430;10.586;2023-06-04T12:36:56;2.15;;;1.48;;
38182;SDS011;23991;52.430;10.586;2023-06-04T12:39:22;3.42;;;1.55;;
38182;SDS011;23991;52.430;10.586;2023-06-04T12:41:48;1.80;;;1.30;;
38182;SDS011;23991;52.430;10.586;2023-06-04T12:44:13;3.03;;;1.40;;
38182;SDS011;23991;52.430;10.586;2023-06-04T12:46:39;4.40;;;1.67;;
38182;SDS011;23991;52.430;10.586;2023-06-04T12:49:05;1.58;;;1.25;;
38182;SDS011;23991;52.430;10.586;2023-06-04T12:51:30;14.95;;;2.10;;
38182;SDS011;23991;52.430;10.586;2023-06-04T12:53:57;11.32;;;3.85;;
38182;SDS011;23991;52.430;10.586;2023-06-04T12:56:23;4.13;;;1.60;;
38182;SDS011;23991;52.430;10.586;2023-06-04T12:58:49;1.90;;;1.33;;
38182;SDS011;23991;52.430;10.586;2023-06-04T13:01:14;2.35;;;1.58;;
38182;SDS011;23991;52.430;10.586;2023-06-04T13:03:40;2.55;;;1.17;;
38182;SDS011;23991;52.430;10.586;2023-06-04T13:06:06;3.90;;;2.03;;
38182;SDS011;23991;52.430;10.586;2023-06-04T13:08:32;2.70;;;1.40;;
38182;SDS011;23991;52.430;10.586;2023-06-04T13:10:57;2.47;;;1.40;;
38182;SDS011;23991;52.430;10.586;2023-06-04T13:13:23;4.53;;;1.60;;
38182;SDS011;23991;52.430;10.586;2023-06-04T13:15:49;1.63;;;1.20;;
38182;SDS011;23991;52.430;10.586;2023-06-04T13:18:14;2.85;;;1.27;;
38182;SDS011;23991;52.430;10.586;2023-06-04T13:20:41;3.58;;;1.50;;
38182;SDS011;23991;52.430;10.586;2023-06-04T13:23:07;3.05;;;1.50;;
38182;SDS011;23991;52.430;10.586;2023-06-04T13:25:33;3.67;;;1.65;;
38182;SDS011;23991;52.430;10.586;2023-06-04T13:27:59;1.75;;;1.35;;
38182;SDS011;23991;52.430;10.586;2023-06-04T13:30:25;4.15;;;1.40;;
38182;SDS011;23991;52.430;10.586;2023-06-04T13:32:50;2.33;;;1.40;;
38182;SDS011;23991;52.430;10.586;2023-06-04T13:35:17;2.33;;;1.40;;
38182;SDS011;23991;52.430;10.586;2023-06-04T13:37:43;3.03;;;1.45;;
38182;SDS011;23991;52.430;10.586;2023-06-04T13:40:08;3.85;;;1.50;;
38182;SDS011;23991;52.430;10.586;2023-06-04T13:42:34;2.17;;;1.42;;
38182;SDS011;23991;52.430;10.586;2023-06-04T13:45:00;2.17;;;1.30;;
38182;SDS011;23991;52.430;10.586;2023-06-04T13:47:26;2.85;;;1.52;;
38182;SDS011;23991;52.430;10.586;2023-06-04T13:49:51;2.00;;;1.30;;
38182;SDS011;23991;52.430;10.586;2023-06-04T13:52:17;3.00;;;1.40;;
38182;SDS011;23991;52.430;10.586;2023-06-04T13:54:43;3.55;;;1.40;;
38182;SDS011;23991;52.430;10.586;2023-06-04T13:57:08;2.72;;;1.60;;
38182;SDS011;23991;52.430;10.586;2023-06-04T13:59:37;2.75;;;1.50;;
38182;SDS011;23991;52.430;10.586;2023-06-04T14:02:04;2.15;;;1.38;;
38182;SDS011;23991;52.430;10.586;2023-06-04T14:04:30;2.83;;;1.73;;
38182;SDS011;23991;52.430;10.586;2023-06-04T14:06:55;3.80;;;1.52;;
38182;SDS011;23991;52.430;10.586;2023-06-04T14:09:21;3.55;;;1.63;;
38182;SDS011;23991;52.430;10.586;2023-06-04T14:11:47;3.00;;;1.52;;
38182;SDS011;23991;52.430;10.586;2023-06-04T14:16:45;3.00;;;1.70;;
38182;SDS011;23991;52.430;10.586;2023-06-04T14:19:11;2.22;;;1.55;;
38182;SDS011;23991;52.430;10.586;2023-06-04T14:21:37;2.13;;;1.40;;
38182;SDS011;23991;52.430;10.586;2023-06-04T14:24:02;4.28;;;1.60;;
38182;SDS011;23991;52.430;10.586;2023-06-04T14:26:28;2.10;;;1.60;;
38182;SDS011;23991;52.430;10.586;2023-06-04T14:28:54;3.20;;;1.60;;
38182;SDS011;23991;52.430;10.586;2023-06-04T14:31:20;2.60;;;1.55;;
38182;SDS011;23991;52.430;10.586;2023-06-04T14:33:46;3.67;;;1.55;;
38182;SDS011;23991;52.430;10.586;2023-06-04T14:36:12;2.63;;;1.55;;
38182;SDS011;23991;52.430;10.586;2023-06-04T14:38:37;2.60;;;1.60;;
38182;SDS011;23991;52.430;10.586;2023-06-04T14:41:03;2.70;;;1.60;;
38182;SDS011;23991;52.430;10.586;2023-06-04T14:43:29;2.83;;;1.60;;